Flight Track Log - Related Links

Times and Time Zones

All times are in EST time to prevent confusion due to time zone crossing. See the BOE236 flight status page for this flight to view local times or setup timezone preferences in your user account.

Time Position Orientation Groundspeed Altitude Reporting Facility
EST Latitude Longitude Course Direction KTS MPH feet Rate Location/Type
Tue 01:39:23 PM 47.5092 -122.2861 143° Southeast 151 174 1,100  Level Seattle Center
Tue 01:39:47 PM 47.4989 -122.2747 141° Southeast 156 180 1,800 1,694 Climbing Seattle Center
Tue 01:40:48 PM 47.4547 -122.2225 155° Southeast 224 258 3,500 2,311 Climbing Seattle Center
Tue 01:41:49 PM 47.3967 -122.1828 171° South 241 277 6,500 3,073 Climbing Seattle Center
Tue 01:42:51 PM 47.3153 -122.1636 170° South 250 288 9,800 2,341 Climbing Seattle Center
Tue 01:43:52 PM 47.2383 -122.1436 170° South 293 337 11,300 2,016 Climbing Seattle Center
Tue 01:44:53 PM 47.1478 -122.1203 170° South 330 380 13,900 2,508 Climbing Seattle Center
Tue 01:45:54 PM 47.0539 -122.0961 171° South 343 395 16,400 2,410 Climbing Seattle Center
Tue 01:46:55 PM 46.9547 -122.0728 170° South 362 417 18,800 2,262 Climbing Seattle Center
Tue 01:47:56 PM 46.8528 -122.0464 171° South 374 430 21,000 2,016 Climbing Seattle Center
Tue 01:48:57 PM 46.7447 -122.0203 165° South 391 450 22,900 2,000 Climbing Seattle Center
Tue 01:49:59 PM 46.6108 -121.9669 122° Southeast 421 484 25,100 1,854 Climbing Seattle Center
Tue 01:51:00 PM 46.5436 -121.8092 120° Southeast 468 539 26,700 1,721 Climbing Seattle Center
Tue 01:52:01 PM 46.4783 -121.6464 118° Southeast 473 544 28,600 1,770 Climbing Seattle Center
Tue 01:53:02 PM 46.4161 -121.4792 121° Southeast 486 559 30,300 1,475 Climbing Seattle Center
Tue 01:54:03 PM 46.3456 -121.3072 120° Southeast 494 568 31,600 1,426 Climbing Seattle Center
Tue 01:55:04 PM 46.2753 -121.1289 121° Southeast 506 582 33,200 1,721 Climbing Seattle Center
Tue 01:56:05 PM 46.1867 -120.9142 120° Southeast 517 595 35,100 1,366 Climbing Seattle Center
Tue 01:57:07 PM 46.1128 -120.7331 121° Southeast 523 602 36,000 927 Climbing Seattle Center
Tue 01:58:08 PM 46.0381 -120.5525 121° Southeast 525 604 37,000 492 Climbing Seattle Center
Tue 01:59:09 PM 45.9644 -120.3750 121° Southeast 522 601 37,000  Level Seattle Center
Tue 02:00:10 PM 45.8906 -120.1997 121° Southeast 516 594 37,000  Level Seattle Center
Tue 02:01:11 PM 45.8161 -120.0253 121° Southeast 515 593 37,000  Level Seattle Center
Tue 02:02:12 PM 45.7425 -119.8494 100° East 515 593 37,000  Level Seattle Center
Tue 02:03:13 PM 45.7169 -119.6506 92° East 513 590 37,000  Level Seattle Center
Tue 02:04:14 PM 45.7108 -119.4436 92° East 523 602 37,000  Level Seattle Center
Tue 02:05:16 PM 45.7053 -119.2372 91° East 521 600 37,000  Level Seattle Center
Tue 02:06:17 PM 45.7014 -119.0317 89° East 519 597 37,000  Level Seattle Center
Tue 02:07:18 PM 45.7047 -118.7883 85° East 513 590 37,000  Level Seattle Center
Tue 02:08:19 PM 45.7167 -118.5856 86° East 514 592 37,000  Level Seattle Center
Tue 02:09:20 PM 45.7264 -118.3811 86° East 515 593 37,000  Level Seattle Center
Tue 02:10:21 PM 45.7361 -118.1778 86° East 515 593 37,000  Level Seattle Center
Tue 02:11:23 PM 45.7458 -117.9742 87° East 516 594 37,000  Level Seattle Center
Tue 02:12:24 PM 45.7542 -117.7722 86° East 513 590 37,000  Level Seattle Center
Tue 02:13:25 PM 45.7633 -117.5639 87° East 514 592 37,000  Level Seattle Center
Tue 02:14:26 PM 45.7725 -117.3356 86° East 514 592 37,000  Level Seattle Center
Tue 02:15:27 PM 45.7808 -117.1411 87° East 512 589 37,000  Level Seattle Center
Tue 02:16:29 PM 45.7889 -116.9456 87° East 512 589 37,000  Level Seattle Center
Tue 02:17:30 PM 45.7964 -116.7181 87° East 511 588 37,000  Level Seattle Center
Tue 02:18:31 PM 45.8031 -116.5247 87° East 509 586 37,000  Level Seattle Center
Tue 02:19:32 PM 45.8111 -116.3019 88° East 503 579 37,000  Level Seattle Center
Tue 02:20:33 PM 45.8164 -116.1108 88° East 501 577 37,000  Level Seattle Center
Tue 02:21:34 PM 45.8219 -115.9192 88° East 501 577 37,000  Level Seattle Center
Tue 02:22:36 PM 45.8272 -115.6992 87° East 497 572 37,000  Level Seattle Center
Tue 02:23:37 PM 45.8331 -115.5081 88° East 499 574 37,000  Level Seattle Center
Tue 02:24:38 PM 45.8372 -115.3172 88° East 500 575 37,000  Level Seattle Center
Tue 02:25:39 PM 45.8417 -115.0942 88° East 500 575 37,000  Level Seattle Center
Tue 02:26:41 PM 45.8450 -114.9031 90° East 500 575 37,000 234 Level Seattle Center
Tue 02:26:56 PM 45.8453 -114.8367 89° East 498 573 37,300 623 Climbing Salt Center
Tue 02:27:58 PM 45.8483 -114.6456 89° East 499 574 37,800 484 Climbing Salt Center
Tue 02:29:00 PM 45.8519 -114.4139 89° East 513 590 38,300 677 Climbing Salt Center
Tue 02:30:02 PM 45.8542 -114.2333 89° East 526 605 39,200 1,258 Climbing Salt Center
Tue 02:31:04 PM 45.8578 -113.9850 90° East 524 603 40,900 823 Climbing Salt Center
Tue 02:32:06 PM 45.8586 -113.7869 89° East 507 583 40,900 49 Level Salt Center
Tue 02:33:07 PM 45.8606 -113.5975 89° East 509 586 41,000 49 Climbing Salt Center
Tue 02:34:09 PM 45.8625 -113.3967 90° East 507 583 41,000  Level Salt Center
Tue 02:35:11 PM 45.8619 -113.1558 90° East 504 580 41,000  Level Salt Center
Tue 02:36:13 PM 45.8628 -112.9531 90° East 506 582 41,000  Level Salt Center
Tue 02:37:15 PM 45.8633 -112.7464 90° East 513 590 41,000  Level Salt Center
Tue 02:38:17 PM 45.8625 -112.5428 90° East 512 589 41,000  Level Salt Center
Tue 02:39:18 PM 45.8619 -112.3417 90° East 508 585 41,000  Level Salt Center
Tue 02:40:20 PM 45.8614 -112.1400 90° East 506 582 41,000  Level Salt Center
Tue 02:41:22 PM 45.8611 -111.9367 90° East 508 585 41,000  Level Salt Center
Tue 02:42:24 PM 45.8606 -111.6900 90° East 513 590 41,000  Level Salt Center
Tue 02:43:26 PM 45.8594 -111.4808 90° East 519 597 41,000  Level Salt Center
Tue 02:44:28 PM 45.8586 -111.2675 91° East 526 605 41,000  Level Salt Center
Tue 02:45:30 PM 45.8564 -111.0508 90° East 520 598 41,000  Level Salt Center
Tue 02:46:31 PM 45.8550 -110.8406 91° East 519 597 41,000  Level Salt Center
Tue 02:47:33 PM 45.8525 -110.6314 91° East 522 601 41,000  Level Salt Center
Tue 02:48:35 PM 45.8483 -110.4069 91° East 517 595 41,000  Level Salt Center
Tue 02:49:37 PM 45.8458 -110.2086 92° East 518 596 41,000  Level Salt Center
Tue 02:50:39 PM 45.8419 -110.0111 91° East 518 596 41,000  Level Salt Center
Tue 02:51:41 PM 45.8383 -109.7769 91° East 524 603 41,000  Level Salt Center
Tue 02:52:43 PM 45.8353 -109.5756 92° East 526 605 41,000  Level Salt Center
Tue 02:53:45 PM 45.8294 -109.3419 92° East 525 604 41,000  Level Salt Center
Tue 02:54:47 PM 45.8236 -109.1400 92° East 528 608 41,000  Level Salt Center
Tue 02:55:49 PM 45.8169 -108.9039 93° East 530 610 41,000  Level Salt Center
Tue 02:56:51 PM 45.8106 -108.7025 131° Southeast 529 609 41,000  Level Salt Center
Tue 02:57:53 PM 45.7103 -108.5353 148° Southeast 517 595 41,000  Level Salt Center
Tue 02:58:55 PM 45.5947 -108.4306 148° Southeast 514 592 41,000  Level Salt Center
Tue 02:59:57 PM 45.4792 -108.3267 148° Southeast 513 590 41,000  Level Salt Center
Tue 03:00:59 PM 45.3444 -108.2056 148° Southeast 512 589 41,000  Level Salt Center
Tue 03:02:01 PM 45.2286 -108.1022 148° Southeast 513 590 41,000  Level Salt Center
Tue 03:03:03 PM 45.0917 -107.9808 148° Southeast 517 595 41,000  Level Salt Center
Tue 03:04:05 PM 44.9772 -107.8789 148° Southeast 509 586 41,000  Level Salt Center
Tue 03:05:07 PM 44.8400 -107.7583 148° Southeast 506 582 41,000  Level Salt Center
Tue 03:06:09 PM 44.7231 -107.6556 149° Southeast 506 582 41,000  Level Salt Center
Tue 03:07:11 PM 44.6061 -107.5556 149° Southeast 510 587 41,000  Level Salt Center
Tue 03:08:13 PM 44.4700 -107.4394 149° Southeast 511 588 41,000  Level Salt Center
Tue 03:09:15 PM 44.3547 -107.3408 148° Southeast 509 586 41,000  Level Salt Center
Tue 03:10:17 PM 44.2214 -107.2256 148° Southeast 506 582 41,000  Level Salt Center
Tue 03:11:19 PM 44.1083 -107.1269 149° Southeast 503 579 41,000  Level Salt Center
Tue 03:12:21 PM 43.9742 -107.0133 148° Southeast 504 580 41,000  Level Salt Center
Tue 03:13:23 PM 43.8594 -106.9150 149° Southeast 505 581 41,000  Level Salt Center
Tue 03:14:25 PM 43.7267 -106.8033 149° Southeast 504 580 41,000  Level Salt Center
Tue 03:15:27 PM 43.6114 -106.7089 153° Southeast 503 579 41,000  Level Salt Center
Tue 03:16:34 PM 43.4661 -106.6081 163° South 498 573 41,000  Level Denver Center
Tue 03:17:34 PM 43.3517 -106.5594 163° South 493 567 41,000  Level Denver Center
Tue 03:18:34 PM 43.2081 -106.4994 162° South 493 567 41,000  Level Denver Center
Tue 03:19:34 PM 43.0789 -106.4425 163° South 493 567 41,000  Level Denver Center
Tue 03:20:34 PM 42.9475 -106.3886 163° South 493 567 41,000  Level Denver Center
Tue 03:21:34 PM 42.8289 -106.3378 163° South 501 577 41,000  Level Denver Center
Tue 03:22:34 PM 42.6828 -106.2789 164° South 496 571 41,000  Level Denver Center
Tue 03:23:34 PM 42.5494 -106.2283 165° South 496 571 41,000  Level Denver Center
Tue 03:24:34 PM 42.4283 -106.1839 165° South 491 565 41,000  Level Denver Center
Tue 03:25:34 PM 42.2928 -106.1339 165° South 498 573 41,000  Level Denver Center
Tue 03:26:34 PM 42.1447 -106.0786 165° South 498 573 41,000 -550 Level Denver Center
Tue 03:27:34 PM 42.0092 -106.0292 165° South 503 579 39,900 -850 Descending Denver Center
Tue 03:28:34 PM 41.8922 -105.9883 164° South 498 573 39,300 -1,200 Descending Denver Center
Tue 03:29:34 PM 41.7503 -105.9336 165° South 485 558 37,500 -1,300 Descending Denver Center
Tue 03:30:34 PM 41.6144 -105.8847 165° South 491 565 36,700 -1,000 Descending Denver Center
Tue 03:31:34 PM 41.4850 -105.8389 164° South 485 558 35,500 -1,250 Descending Denver Center
Tue 03:32:34 PM 41.3681 -105.7956 164° South 485 558 34,200 -1,500 Descending Denver Center
Tue 03:33:34 PM 41.2258 -105.7419 166° South 485 558 32,500 -1,400 Descending Denver Center
Tue 03:34:34 PM 41.0964 -105.6992 166° South 485 558 31,400 -1,250 Descending Denver Center
Tue 03:35:34 PM 40.9647 -105.6567 164° South 485 558 30,000 -1,500 Descending Denver Center
Tue 03:36:34 PM 40.8414 -105.6114 156° South 476 548 28,400 -1,315 Descending Denver Center
Tue 03:42:52 PM 40.1992 -105.2420 137° Southeast 344 396 20,400 -1,245 Descending FlightAware
Tue 03:43:43 PM 40.1463 -105.1770 136° Southeast 343 395 19,500 -1,227 Descending FlightAware
Tue 03:44:20 PM 40.0980 -105.1170 137° Southeast 337 388 18,600 -1,548 Descending FlightAware
Tue 03:44:45 PM 40.0691 -105.0820 137° Southeast 340 391 17,900 -1,393 Descending FlightAware
Tue 03:45:16 PM 40.0332 -105.0380 144° Southeast 341 392 17,300 -706 Descending FlightAware
Tue 03:45:36 PM 40.0089 -105.0150 159° South 330 380 17,300  Level FlightAware
Tue 03:46:04 PM 39.9703 -104.9960 164° South 318 366 17,300  Level FlightAware
Tue 03:46:47 PM 39.9098 -104.9740 165° South 318 366 17,300  Level FlightAware
Tue 03:47:18 PM 39.8649 -104.9580 165° South 317 365 17,300  Level FlightAware
Tue 03:47:51 PM 39.8187 -104.9420 165° South 317 365 17,300  Level FlightAware
Tue 03:48:23 PM 39.7739 -104.9260 165° South 318 366 17,300  Level FlightAware
Tue 03:48:54 PM 39.7288 -104.9100 165° South 321 369 17,300 -529 Level FlightAware
Tue 03:49:31 PM 39.6758 -104.8910 165° South 321 369 16,700 -1,164 Descending FlightAware
Tue 03:50:01 PM 39.6326 -104.8760 164° South 319 367 16,000 -1,258 Descending FlightAware
Tue 03:50:33 PM 39.5886 -104.8600 164° South 311 358 15,400 -1,313 Descending FlightAware
Tue 03:51:05 PM 39.5446 -104.8440 164° South 311 358 14,600 -1,355 Descending FlightAware
Tue 03:51:35 PM 39.5029 -104.8290 165° South 305 351 14,000 -1,292 Descending FlightAware
Tue 03:52:10 PM 39.4548 -104.8120 165° South 305 351 13,200 -1,455 Descending FlightAware
Tue 03:52:41 PM 39.4134 -104.7980 165° South 304 350 12,400 -831 Descending FlightAware
Tue 03:53:15 PM 39.3645 -104.7810 164° South 325 374 12,300 -78 Descending FlightAware
Tue 03:53:58 PM 39.3040 -104.7590 165° South 306 352 12,300  Level FlightAware
Tue 03:54:59 PM 39.2226 -104.7310 163° South 304 350 12,300 -198 Level FlightAware
Tue 03:55:29 PM 39.1843 -104.7160 164° South 291 335 12,000 -571 Descending FlightAware
Tue 03:56:02 PM 39.1422 -104.7000 164° South 274 315 11,700 -880 Descending FlightAware
Tue 03:56:44 PM 39.0930 -104.6820 183° South 252 290 10,900 -1,301 Descending FlightAware
Tue 03:57:25 PM 39.0467 -104.6850 180° South 247 284 9,900 -1,065 Descending FlightAware
Tue 03:57:46 PM 39.0293 -104.6850 180° South 241 277 9,800 -667 Descending FlightAware
Tue 03:58:01 PM 39.0083 -104.6850 180° South 241 277 9,500 -1,200 Descending FlightAware

Login

Don't have an account? Register now (free) for customized features, flight alerts, and more!